createdAt,value
2023-05-22T00:01:06.914Z,60.51
2023-05-22T00:05:30.869Z,61.10
2023-05-22T00:09:54.330Z,61.30
2023-05-22T00:14:16.315Z,61.51
2023-05-22T00:18:40.331Z,61.57
2023-05-22T00:23:04.229Z,61.36
2023-05-22T00:27:28.053Z,61.63
2023-05-22T00:31:51.558Z,61.95
2023-05-22T00:36:15.342Z,61.90
2023-05-22T00:40:39.645Z,61.52
2023-05-22T00:44:44.834Z,61.67
2023-05-22T00:49:09.022Z,61.50
2023-05-22T00:53:32.866Z,61.46
2023-05-22T00:57:56.857Z,61.70
2023-05-22T01:02:20.827Z,61.87
2023-05-22T01:05:38.516Z,61.88
2023-05-22T01:08:42.558Z,61.81
2023-05-22T01:12:01.556Z,61.88
2023-05-22T01:15:07.288Z,61.88
2023-05-22T01:18:20.977Z,61.83
2023-05-22T01:22:08.801Z,61.84
2023-05-22T01:25:34.361Z,61.53
2023-05-22T01:28:59.523Z,61.02
2023-05-22T01:32:04.499Z,61.15
2023-05-22T01:35:11.888Z,61.36
2023-05-22T01:38:16.854Z,61.66
2023-05-22T01:41:21.801Z,61.91
2023-05-22T01:44:25.330Z,61.80
2023-05-22T01:47:28.213Z,61.85
2023-05-22T01:50:31.655Z,61.76
2023-05-22T01:53:59.378Z,61.85
2023-05-22T01:57:22.105Z,61.84
2023-05-22T02:00:27.843Z,61.78
2023-05-22T02:03:33.838Z,61.99
2023-05-22T02:06:38.219Z,62.28
2023-05-22T02:09:42.266Z,62.11
2023-05-22T02:12:48.714Z,62.29
2023-05-22T02:15:52.756Z,62.16
2023-05-22T02:19:06.704Z,62.16
2023-05-22T02:22:13.923Z,62.10
2023-05-22T02:25:17.738Z,62.32
2023-05-22T02:28:22.001Z,62.45
2023-05-22T02:31:24.850Z,62.59
2023-05-22T02:34:28.562Z,62.70
2023-05-22T02:37:31.815Z,62.82
2023-05-22T02:40:35.420Z,63.16
2023-05-22T02:43:38.800Z,63.19
2023-05-22T02:46:41.746Z,63.35
2023-05-22T02:49:45.283Z,63.32
2023-05-22T02:52:49.675Z,63.28
2023-05-22T02:55:53.290Z,63.37
2023-05-22T02:58:57.455Z,63.82
2023-05-22T03:02:00.468Z,64.21
2023-05-22T03:05:03.796Z,64.43
2023-05-22T03:08:06.791Z,64.78
2023-05-22T03:11:10.317Z,65.31
2023-05-22T03:14:13.094Z,65.41
2023-05-22T03:17:15.940Z,65.48
2023-05-22T03:20:18.868Z,65.61
2023-05-22T03:23:21.906Z,65.19
2023-05-22T03:26:25.429Z,64.91
2023-05-22T03:29:28.866Z,64.73
2023-05-22T03:32:31.812Z,64.74
2023-05-22T03:35:35.249Z,64.60
2023-05-22T03:38:38.324Z,64.17
2023-05-22T03:41:41.512Z,63.93
2023-05-22T03:44:44.649Z,63.51
2023-05-22T03:47:48.070Z,63.15
2023-05-22T03:50:51.113Z,62.94
2023-05-22T03:58:17.198Z,61.80
2023-05-22T04:01:20.982Z,61.22
2023-05-22T04:04:26.965Z,60.94
2023-05-22T04:07:29.798Z,60.45
2023-05-22T04:10:32.683Z,59.90
2023-05-22T04:13:35.604Z,59.13
2023-05-22T04:16:38.811Z,58.32
2023-05-22T04:19:41.672Z,57.81
2023-05-22T04:22:45.871Z,56.67
2023-05-22T04:25:48.726Z,55.57
2023-05-22T04:28:51.503Z,55.01
2023-05-22T04:31:55.718Z,54.03
2023-05-22T04:35:00.659Z,53.66
2023-05-22T04:38:03.786Z,53.26
2023-05-22T04:41:08.870Z,53.23
2023-05-22T04:44:11.959Z,53.03
2023-05-22T04:47:15.030Z,53.05
2023-05-22T04:50:18.907Z,53.31
2023-05-22T04:53:21.934Z,53.03
2023-05-22T04:56:35.502Z,53.37
2023-05-22T04:59:41.449Z,52.36
2023-05-22T05:02:45.898Z,52.16
2023-05-22T05:05:49.330Z,51.86
2023-05-22T05:08:53.197Z,51.30
2023-05-22T05:11:56.664Z,51.31
2023-05-22T05:14:59.553Z,51.21
2023-05-22T05:18:02.640Z,51.42
2023-05-22T05:21:05.638Z,51.89
2023-05-22T05:24:08.745Z,51.42
2023-05-22T05:27:11.969Z,50.81
2023-05-22T05:30:15.810Z,50.59
2023-05-22T05:33:38.292Z,50.72
2023-05-22T05:36:44.844Z,50.91
2023-05-22T05:39:47.969Z,50.60
2023-05-22T05:42:51.276Z,49.94
2023-05-22T05:45:59.064Z,49.38
2023-05-22T05:49:10.123Z,49.49
2023-05-22T05:52:14.198Z,49.04
2023-05-22T05:55:17.205Z,48.82
2023-05-22T05:58:20.141Z,49.08
2023-05-22T06:01:56.655Z,49.36
2023-05-22T06:05:03.039Z,49.80
2023-05-22T06:08:09.858Z,50.07
2023-05-22T06:11:12.931Z,50.07
2023-05-22T06:14:25.202Z,49.67
2023-05-22T06:17:27.999Z,49.76
2023-05-22T06:20:31.662Z,49.30
2023-05-22T06:23:34.744Z,48.87
2023-05-22T06:26:38.367Z,48.11
2023-05-22T06:29:41.424Z,47.98
2023-05-22T06:32:44.723Z,46.82
2023-05-22T06:35:48.163Z,46.48
2023-05-22T06:38:52.262Z,45.23
2023-05-22T06:42:13.845Z,45.16
2023-05-22T06:45:37.746Z,44.54
2023-05-22T06:48:59.043Z,43.95
2023-05-22T06:52:09.979Z,43.90
2023-05-22T06:55:13.750Z,43.95
2023-05-22T06:58:27.634Z,42.90
2023-05-22T07:01:31.533Z,42.41
2023-05-22T07:04:40.074Z,40.96
2023-05-22T07:07:47.639Z,41.51
2023-05-22T07:10:51.816Z,40.30
2023-05-22T07:13:54.901Z,40.56
2023-05-22T07:16:58.076Z,41.28
2023-05-22T07:20:12.085Z,41.36
2023-05-22T07:23:17.182Z,39.49
2023-05-22T07:26:20.352Z,38.58
2023-05-22T07:29:28.206Z,40.29
2023-05-22T07:32:31.374Z,38.64
2023-05-22T07:35:36.295Z,37.28
2023-05-22T07:38:40.464Z,36.68
2023-05-22T07:41:50.270Z,37.76
2023-05-22T07:44:55.032Z,39.03
2023-05-22T07:47:59.329Z,38.47
2023-05-22T07:51:03.847Z,37.30
2023-05-22T07:54:08.345Z,37.16
2023-05-22T07:57:12.717Z,36.85
2023-05-22T08:00:17.158Z,36.12
2023-05-22T08:03:22.267Z,35.69
2023-05-22T08:06:27.098Z,35.22
2023-05-22T08:09:29.933Z,36.43
2023-05-22T08:12:33.030Z,36.39
2023-05-22T08:15:35.875Z,36.15
2023-05-22T08:18:38.742Z,34.98
2023-05-22T08:21:41.614Z,35.18
2023-05-22T08:24:44.599Z,36.06
2023-05-22T08:27:47.467Z,36.34
2023-05-22T08:30:50.716Z,34.56
2023-05-22T08:33:53.695Z,33.12
2023-05-22T08:36:56.523Z,33.68
2023-05-22T08:39:59.361Z,33.22
2023-05-22T08:43:03.048Z,33.90
2023-05-22T08:46:08.845Z,34.48
2023-05-22T08:49:13.574Z,33.52
2023-05-22T08:52:22.034Z,33.17
2023-05-22T08:55:25.389Z,34.74
2023-05-22T08:58:29.177Z,34.99
2023-05-22T09:01:33.096Z,34.28
2023-05-22T09:04:36.374Z,33.90
2023-05-22T09:07:40.893Z,35.08
2023-05-22T09:10:43.665Z,34.32
2023-05-22T09:13:46.679Z,32.89
2023-05-22T09:16:53.190Z,33.99
2023-05-22T09:20:00.096Z,34.47
2023-05-22T09:23:11.397Z,35.26
2023-05-22T09:26:14.406Z,34.16
2023-05-22T09:29:17.327Z,34.95
2023-05-22T09:32:20.265Z,33.85
2023-05-22T09:35:27.924Z,33.28
2023-05-22T09:38:31.819Z,33.91
2023-05-22T09:41:36.834Z,33.06
2023-05-22T09:44:39.681Z,33.78
2023-05-22T09:47:42.725Z,34.44
2023-05-22T09:50:49.077Z,34.86
2023-05-22T09:53:59.002Z,35.07
2023-05-22T09:57:07.063Z,33.32
2023-05-22T10:00:16.116Z,34.04
2023-05-22T10:03:23.718Z,34.55
2023-05-22T10:06:27.755Z,33.80
2023-05-22T10:09:35.860Z,35.72
2023-05-22T10:12:43.544Z,34.18
2023-05-22T10:15:48.973Z,35.71
2023-05-22T10:18:53.864Z,35.83
2023-05-22T10:21:58.632Z,35.38
2023-05-22T10:25:02.655Z,35.88
2023-05-22T10:28:07.234Z,35.01
2023-05-22T10:31:25.341Z,35.67
2023-05-22T10:34:40.408Z,35.65
2023-05-22T10:37:57.527Z,36.24
2023-05-22T10:41:03.365Z,36.77
2023-05-22T10:44:07.067Z,35.97
2023-05-22T10:47:12.873Z,36.55
2023-05-22T10:50:18.065Z,36.44
2023-05-22T10:53:26.579Z,36.13
2023-05-22T10:56:35.396Z,36.78
2023-05-22T10:59:38.358Z,35.97
2023-05-22T11:02:43.911Z,35.42
2023-05-22T11:05:53.826Z,35.42
2023-05-22T11:08:59.944Z,34.90
2023-05-22T11:12:29.909Z,36.80
2023-05-22T11:15:35.099Z,35.93
2023-05-22T11:18:38.169Z,36.22
2023-05-22T11:21:46.093Z,36.60
2023-05-22T11:24:48.966Z,35.76
2023-05-22T11:27:53.935Z,35.90
2023-05-22T11:30:57.705Z,35.21
2023-05-22T11:34:01.306Z,35.98
2023-05-22T11:37:04.561Z,35.48
2023-05-22T11:40:08.852Z,36.41
2023-05-22T11:43:12.041Z,35.84
2023-05-22T11:46:15.345Z,36.62
2023-05-22T11:49:18.285Z,35.09
2023-05-22T11:52:21.390Z,35.39
2023-05-22T11:55:24.800Z,35.48
2023-05-22T11:58:28.735Z,36.44
2023-05-22T12:01:32.472Z,37.15
2023-05-22T12:04:35.217Z,37.18
2023-05-22T12:07:38.441Z,37.28
2023-05-22T12:10:47.954Z,37.42
2023-05-22T12:14:01.128Z,37.28
2023-05-22T12:17:07.975Z,37.02
2023-05-22T12:20:13.843Z,37.59
2023-05-22T12:23:26.687Z,36.97
2023-05-22T12:26:29.508Z,37.82
2023-05-22T12:29:35.001Z,37.20
2023-05-22T12:32:40.348Z,37.99
2023-05-22T12:35:43.189Z,37.90
2023-05-22T12:38:46.593Z,38.36
2023-05-22T12:41:49.406Z,37.58
2023-05-22T12:44:57.144Z,37.45
2023-05-22T12:48:00.008Z,37.06
2023-05-22T12:51:02.945Z,37.02
2023-05-22T12:54:05.982Z,35.69
2023-05-22T12:57:09.246Z,35.58
2023-05-22T13:00:13.110Z,35.28
2023-05-22T13:03:16.512Z,34.96
2023-05-22T13:06:20.095Z,34.99
2023-05-22T13:09:23.257Z,34.65
2023-05-22T13:12:27.474Z,36.76
2023-05-22T13:15:31.539Z,35.50
2023-05-22T13:18:34.535Z,35.98
2023-05-22T13:21:37.413Z,35.49
2023-05-22T13:25:27.264Z,35.65
2023-05-22T13:29:35.999Z,36.05
2023-05-22T13:32:38.905Z,36.01
2023-05-22T13:35:41.967Z,35.79
2023-05-22T13:38:45.205Z,36.29
2023-05-22T13:41:48.273Z,37.24
2023-05-22T13:44:51.277Z,36.88
2023-05-22T13:47:54.205Z,36.21
2023-05-22T13:50:57.119Z,36.97
2023-05-22T13:54:00.071Z,36.44
2023-05-22T13:57:02.995Z,36.23
2023-05-22T14:00:09.523Z,37.19
2023-05-22T14:03:17.432Z,36.82
2023-05-22T14:06:20.715Z,36.16
2023-05-22T14:09:23.812Z,36.33
2023-05-22T14:12:26.703Z,35.99
2023-05-22T14:15:29.539Z,36.20
2023-05-22T14:18:32.392Z,35.84
2023-05-22T14:21:35.389Z,36.17
2023-05-22T14:24:38.452Z,36.76
2023-05-22T14:27:41.350Z,37.15
2023-05-22T14:30:44.341Z,37.19
2023-05-22T14:33:47.225Z,37.12
2023-05-22T14:36:50.124Z,37.61
2023-05-22T14:39:52.939Z,37.45
2023-05-22T14:42:55.988Z,37.41
2023-05-22T14:45:59.337Z,36.77
2023-05-22T14:49:02.618Z,37.39
2023-05-22T14:52:05.685Z,36.45
2023-05-22T14:55:09.145Z,36.10
2023-05-22T14:58:11.976Z,36.86
2023-05-22T15:01:14.889Z,37.01
2023-05-22T15:04:18.518Z,36.48
2023-05-22T15:07:24.341Z,36.33
2023-05-22T15:10:29.724Z,36.75
2023-05-22T15:13:32.865Z,36.69
2023-05-22T15:16:35.786Z,37.19
2023-05-22T15:19:38.923Z,36.74
2023-05-22T15:22:41.903Z,37.17
2023-05-22T15:25:45.000Z,36.57
2023-05-22T15:28:47.780Z,37.24
2023-05-22T15:31:50.915Z,36.26
2023-05-22T15:34:53.886Z,36.68
2023-05-22T15:37:58.092Z,36.38
2023-05-22T15:41:00.963Z,37.31
2023-05-22T15:44:03.823Z,36.17
2023-05-22T15:47:06.668Z,36.64
2023-05-22T15:50:10.002Z,37.06
2023-05-22T15:53:12.965Z,37.96
2023-05-22T15:56:16.209Z,37.20
2023-05-22T15:59:19.374Z,37.34
2023-05-22T16:02:22.235Z,37.70
2023-05-22T16:05:25.133Z,37.50
2023-05-22T16:08:28.094Z,38.04
2023-05-22T16:11:31.372Z,38.21
2023-05-22T16:14:34.218Z,37.92
2023-05-22T16:17:38.259Z,37.97
2023-05-22T16:20:41.349Z,38.22
2023-05-22T16:23:44.299Z,39.01
2023-05-22T16:26:47.146Z,38.30
2023-05-22T16:29:50.632Z,38.33
2023-05-22T16:32:53.672Z,38.13
2023-05-22T16:35:56.798Z,38.46
2023-05-22T16:38:59.856Z,39.14
2023-05-22T16:42:02.730Z,38.84
2023-05-22T16:45:06.788Z,39.64
2023-05-22T16:48:09.762Z,40.02
2023-05-22T16:51:12.622Z,39.79
2023-05-22T16:54:15.940Z,40.71
2023-05-22T16:57:19.233Z,40.97
2023-05-22T17:00:22.496Z,41.02
2023-05-22T17:03:26.005Z,41.18
2023-05-22T17:06:29.579Z,41.28
2023-05-22T17:09:33.490Z,41.19
2023-05-22T17:12:36.647Z,41.14
2023-05-22T17:15:39.870Z,41.91
2023-05-22T17:18:42.903Z,42.05
2023-05-22T17:21:45.852Z,42.22
2023-05-22T17:24:49.341Z,42.76
2023-05-22T17:27:52.219Z,43.13
2023-05-22T17:30:56.462Z,42.93
2023-05-22T17:33:59.455Z,43.47
2023-05-22T17:37:02.257Z,43.79
2023-05-22T17:40:06.434Z,44.02
2023-05-22T17:43:09.735Z,44.20
2023-05-22T17:46:12.831Z,44.43
2023-05-22T17:49:15.752Z,44.56
2023-05-22T17:52:18.856Z,44.98
2023-05-22T17:55:21.697Z,45.26
2023-05-22T17:58:24.928Z,45.47
2023-05-22T18:01:29.408Z,45.59
2023-05-22T18:04:32.394Z,45.66
2023-05-22T18:07:35.537Z,45.83
2023-05-22T18:10:38.830Z,46.04
2023-05-22T18:13:41.995Z,46.26
2023-05-22T18:16:44.841Z,46.19
2023-05-22T18:19:47.995Z,46.37
2023-05-22T18:22:50.833Z,46.56
2023-05-22T18:25:54.597Z,46.77
2023-05-22T18:28:57.474Z,46.88
2023-05-22T18:32:00.602Z,47.06
2023-05-22T18:35:05.363Z,47.30
2023-05-22T18:38:08.542Z,47.65
2023-05-22T18:41:11.861Z,48.10
2023-05-22T18:44:14.886Z,48.27
2023-05-22T18:47:20.863Z,48.76
2023-05-22T18:50:23.860Z,48.94
2023-05-22T18:53:27.547Z,49.40
2023-05-22T18:56:32.093Z,49.49
2023-05-22T18:59:34.999Z,49.82
2023-05-22T19:02:38.199Z,50.01
2023-05-22T19:05:43.189Z,50.35
2023-05-22T19:08:47.302Z,50.58
2023-05-22T19:11:50.136Z,51.05
2023-05-22T19:14:53.107Z,51.09
2023-05-22T19:17:56.023Z,51.44
2023-05-22T19:20:59.734Z,51.50
2023-05-22T19:24:04.880Z,51.40
2023-05-22T19:27:08.990Z,51.65
2023-05-22T19:30:15.241Z,51.79
2023-05-22T19:33:18.748Z,52.08
2023-05-22T19:36:23.147Z,52.28
2023-05-22T19:39:27.330Z,52.51
2023-05-22T19:42:31.416Z,52.67
2023-05-22T19:45:35.683Z,53.12
2023-05-22T19:48:38.449Z,53.67
2023-05-22T19:51:42.615Z,53.78
2023-05-22T19:54:45.639Z,54.17
2023-05-22T19:57:48.525Z,54.42
2023-05-22T20:00:51.375Z,54.84
2023-05-22T20:03:56.442Z,54.97
2023-05-22T20:06:59.570Z,55.31
2023-05-22T20:10:06.590Z,55.37
2023-05-22T20:13:09.421Z,55.40
2023-05-22T20:16:12.583Z,55.72
2023-05-22T20:19:17.589Z,55.77
2023-05-22T20:22:20.768Z,55.73
2023-05-22T20:25:23.575Z,55.98
2023-05-22T20:28:26.946Z,56.37
2023-05-22T20:31:29.794Z,56.54
2023-05-22T20:34:33.395Z,56.35
2023-05-22T20:37:38.595Z,56.12
2023-05-22T20:40:46.789Z,56.15
2023-05-22T20:43:50.679Z,56.23
2023-05-22T20:46:54.154Z,56.25
2023-05-22T20:49:57.443Z,56.32
2023-05-22T20:53:00.852Z,56.34
2023-05-22T20:56:03.886Z,56.65
2023-05-22T20:59:06.974Z,56.80
2023-05-22T21:02:09.758Z,57.09
2023-05-22T21:05:13.459Z,57.45
2023-05-22T21:08:16.612Z,57.66
2023-05-22T21:11:20.213Z,57.85
2023-05-22T21:14:23.156Z,58.06
2023-05-22T21:17:26.139Z,58.35
2023-05-22T21:20:29.159Z,58.08
2023-05-22T21:23:31.933Z,58.30
2023-05-22T21:26:34.761Z,58.54
2023-05-22T21:29:37.780Z,58.57
2023-05-22T21:32:41.025Z,58.41
2023-05-22T21:35:43.838Z,58.47
2023-05-22T21:38:47.094Z,58.22
2023-05-22T21:41:50.184Z,58.61
2023-05-22T21:44:53.159Z,58.50
2023-05-22T21:47:56.169Z,58.63
2023-05-22T21:50:59.241Z,58.69
2023-05-22T21:54:02.297Z,58.83
2023-05-22T21:57:05.358Z,59.10
2023-05-22T22:00:09.053Z,59.50
2023-05-22T22:03:12.349Z,59.74
2023-05-22T22:06:15.230Z,59.85
2023-05-22T22:09:18.066Z,59.66
2023-05-22T22:12:21.098Z,60.05
2023-05-22T22:15:24.138Z,59.77
2023-05-22T22:18:27.090Z,59.51
2023-05-22T22:21:30.155Z,59.45
2023-05-22T22:24:32.965Z,59.63
2023-05-22T22:27:37.130Z,59.53
2023-05-22T22:30:40.246Z,59.68
2023-05-22T22:33:43.489Z,59.71
2023-05-22T22:36:46.660Z,59.93
2023-05-22T22:39:49.495Z,60.09
2023-05-22T22:42:52.408Z,60.40
2023-05-22T22:45:56.129Z,60.51
2023-05-22T22:49:01.749Z,60.81
2023-05-22T22:52:05.165Z,60.88
2023-05-22T22:55:09.072Z,60.94
2023-05-22T22:58:12.413Z,60.75
2023-05-22T23:01:15.319Z,60.86
2023-05-22T23:04:18.308Z,60.80
2023-05-22T23:07:24.254Z,61.13
2023-05-22T23:10:27.225Z,61.04
2023-05-22T23:13:30.340Z,61.11
2023-05-22T23:16:38.037Z,61.02
2023-05-22T23:19:41.106Z,61.26
2023-05-22T23:22:43.980Z,61.30
2023-05-22T23:25:47.011Z,61.62
2023-05-22T23:28:49.825Z,61.61
2023-05-22T23:31:52.801Z,61.91
2023-05-22T23:34:56.564Z,61.93
2023-05-22T23:38:00.902Z,61.59
2023-05-22T23:41:03.667Z,61.44
2023-05-22T23:44:06.764Z,61.62
2023-05-22T23:47:09.871Z,61.58
2023-05-22T23:50:12.883Z,61.90
2023-05-22T23:53:15.988Z,62.02
2023-05-22T23:56:18.956Z,62.09
2023-05-22T23:59:21.837Z,62.20
